ADDS METAR Data INFO
IDs: Format: Raw Decoded Include TAF

Data at: 0222 UTC 14 Dec 2017

KDNN 140215Z AUTO 15005KT 10SM CLR 04/M07 A2987 RMK AO2
KDNN 140155Z AUTO 16004KT 10SM CLR 03/M07 A2987 RMK AO2
KDNN 140135Z AUTO 14004KT 10SM CLR 03/M06 A2987 RMK AO2
KDNN 140115Z AUTO 15005KT 10SM CLR 04/M07 A2987 RMK AO2
KDNN 140055Z AUTO 16004KT 10SM CLR 03/M07 A2987 RMK AO2
KDNN 140035Z AUTO 15004KT 10SM CLR 05/M07 A2986 RMK AO2
KDNN 140015Z AUTO 14005KT 10SM CLR 05/M07 A2986 RMK AO2
KDNN 132355Z AUTO 15005KT 10SM CLR 05/M07 A2986 RMK AO2
KDNN 132335Z AUTO 14005KT 10SM CLR 05/M07 A2985 RMK AO2
KDNN 132315Z AUTO 14003KT 10SM CLR 06/M07 A2986 RMK AO2
KDNN 132255Z AUTO 16005KT 10SM CLR 07/M08 A2985 RMK AO2
KDNN 132235Z AUTO 17004KT 10SM SCT120 07/M08 A2986 RMK AO2
KDNN 132215Z AUTO 18006KT 146V206 10SM CLR 08/M08 A2986 RMK AO2
KDNN 132155Z AUTO 19004KT 10SM CLR 08/M08 A2988 RMK AO2
KDNN 132135Z AUTO 19003KT 10SM CLR 08/M08 A2990 RMK AO2
KDNN 132115Z AUTO 19008G14KT 10SM CLR 08/M09 A2988 RMK AO2
KDNN 132055Z AUTO 17008G15KT 10SM CLR 07/M09 A2989 RMK AO2
KDNN 132035Z AUTO 18008KT 146V206 10SM CLR 08/M09 A2989 RMK AO2
KDNN 132015Z AUTO 17010G15KT 10SM CLR 07/M09 A2991 RMK AO2
KDNN 131955Z AUTO 18007G14KT 10SM CLR 07/M10 A2992 RMK AO2
KDNN 131935Z AUTO 17007G16KT 10SM CLR 07/M10 A2993 RMK AO2
KDNN 131915Z AUTO 16006KT 10SM CLR 06/M10 A2994 RMK AO2
KDNN 131855Z AUTO 16006KT 10SM CLR 06/M11 A2996 RMK AO2
KDNN 131835Z AUTO 14006KT 10SM CLR 06/M10 A2998 RMK AO2
KDNN 131815Z AUTO 14010KT 10SM CLR 05/M10 A2999 RMK AO2
KDNN 131755Z AUTO 17006KT 10SM CLR 05/M11 A3001 RMK AO2
KDNN 131735Z AUTO 19005KT 10SM CLR 04/M11 A3003 RMK AO2
KDNN 131715Z AUTO 14005KT 10SM CLR 04/M11 A3003 RMK AO2
KDNN 131655Z AUTO 00000KT 10SM CLR 03/M11 A3005 RMK AO2
KDNN 131635Z AUTO 14003KT 10SM CLR 02/M11 A3006 RMK AO2
KDNN 131615Z AUTO 00000KT 10SM CLR 02/M12 A3008 RMK AO2
KDNN 131555Z AUTO 00000KT 10SM CLR 02/M11 A3008 RMK AO2
KDNN 131535Z AUTO 00000KT 10SM CLR 01/M12 A3009 RMK AO2
KDNN 131515Z AUTO 00000KT 10SM CLR 01/M12 A3009 RMK AO2
KDNN 131455Z AUTO 33003KT 10SM CLR 00/M11 A3009 RMK AO2
KDNN 131435Z AUTO 00000KT 10SM CLR 00/M11 A3009 RMK AO2
KDNN 131415Z AUTO 32003KT 10SM CLR M01/M11 A3009 RMK AO2
KDNN 131355Z AUTO 00000KT 10SM CLR M01/M10 A3009 RMK AO2
KDNN 131335Z AUTO 00000KT 10SM CLR M02/M10 A3008 RMK AO2
KDNN 131315Z AUTO 00000KT 10SM CLR M03/M10 A3008 RMK AO2
KDNN 131255Z AUTO 00000KT 10SM CLR M03/M10 A3009 RMK AO2
KDNN 131235Z AUTO 00000KT 10SM CLR M03/M10 A3008 RMK AO2
KDNN 131215Z AUTO 30003KT 10SM CLR M03/M10 A3008 RMK AO2
KDNN 131155Z AUTO 00000KT 10SM CLR M03/M10 A3007 RMK AO2
KDNN 131135Z AUTO 00000KT 10SM CLR M03/M11 A3006 RMK AO2
KDNN 131115Z AUTO 31003KT 10SM CLR M03/M10 A3007 RMK AO2
KDNN 131055Z AUTO 32004KT 10SM CLR M03/M10 A3006 RMK AO2
KDNN 131035Z AUTO 34005KT 10SM CLR M03/M10 A3007 RMK AO2
KDNN 131015Z AUTO 32004KT 10SM CLR M03/M10 A3007 RMK AO2
KDNN 130955Z AUTO 34005KT 10SM CLR M03/M10 A3007 RMK AO2
KDNN 130935Z AUTO 33006KT 10SM CLR M03/M10 A3008 RMK AO2
KDNN 130915Z AUTO 32005KT 10SM CLR M02/M10 A3008 RMK AO2
KDNN 130855Z AUTO 33006KT 10SM CLR M02/M10 A3008 RMK AO2
KDNN 130835Z AUTO 32006KT 10SM CLR M02/M10 A3008 RMK AO2
KDNN 130815Z AUTO 33007KT 10SM CLR M02/M10 A3009 RMK AO2
KDNN 130755Z AUTO 33007KT 10SM CLR M02/M10 A3008 RMK AO2
KDNN 130735Z AUTO 33005KT 10SM CLR M02/M10 A3008 RMK AO2
KDNN 130715Z AUTO 32006KT 10SM CLR M02/M10 A3008 RMK AO2
KDNN 130655Z AUTO 34009KT 10SM CLR M01/M10 A3008 RMK AO2
KDNN 130635Z AUTO 34007KT 10SM CLR M01/M10 A3007 RMK AO2
KDNN 130615Z AUTO 34007KT 10SM CLR M01/M10 A3007 RMK AO2
KDNN 130555Z AUTO 33005KT 10SM CLR M01/M10 A3007 RMK AO2
KDNN 130535Z AUTO 33008KT 10SM CLR 00/M10 A3007 RMK AO2
KDNN 130515Z AUTO 33010KT 10SM CLR 00/M10 A3006 RMK AO2
KDNN 130455Z AUTO 34008KT 10SM CLR 00/M10 A3007 RMK AO2
KDNN 130435Z AUTO 33009G18KT 10SM CLR 00/M10 A3007 RMK AO2
KDNN 130415Z AUTO 33011G17KT 10SM CLR 00/M09 A3007 RMK AO2
KDNN 130355Z AUTO 34008G16KT 10SM CLR 00/M09 A3008 RMK AO2
KDNN 130335Z AUTO 33010G16KT 10SM CLR 00/M08 A3006 RMK AO2
KDNN 130320Z AUTO 33012G16KT 10SM CLR 00/M07 A3006 RMK AO2
KDNN 130255Z AUTO 34006KT 10SM CLR 00/M06 A3006 RMK AO2
KDNN 130235Z AUTO 33007KT 10SM CLR 00/M06 A3006 RMK AO2
KDNN 130215Z AUTO 34008KT 10SM CLR 01/M06 A3005 RMK AO2
KDNN 130155Z AUTO 34006KT 10SM CLR 01/M05 A3005 RMK AO2
KDNN 130115Z AUTO 35006KT 10SM CLR 01/M05 A3004 RMK AO2
KDNN 130055Z AUTO 34006KT 10SM CLR 01/M05 A3004 RMK AO2
KDNN 130035Z AUTO 34005KT 10SM CLR 01/M04 A3003 RMK AO2
KDNN 130015Z AUTO 34004KT 10SM CLR 02/M05 A3003 RMK AO2
KDNN 122355Z AUTO 00000KT 10SM CLR 02/M05 A3002 RMK AO2
KDNN 122335Z AUTO 36004KT 10SM CLR 03/M05 A3002 RMK AO2
KDNN 122315Z AUTO 35005KT 10SM CLR 03/M05 A3001 RMK AO2
KDNN 122255Z AUTO 35006KT 10SM CLR 03/M05 A3000 RMK AO2
KDNN 122235Z AUTO 34008KT 10SM CLR 05/M05 A3000 RMK AO2
KDNN 122215Z AUTO 33011KT 10SM CLR 05/M04 A3000 RMK AO2
KDNN 122155Z AUTO 32011G18KT 10SM CLR 06/M04 A2999 RMK AO2
KDNN 122135Z AUTO 33012G16KT 10SM CLR 06/M03 A2999 RMK AO2
KDNN 122115Z AUTO 32015G21KT 10SM CLR 07/M03 A2999 RMK AO2
KDNN 122055Z AUTO 32014G18KT 10SM SCT050 07/M02 A2998 RMK AO2
KDNN 122035Z AUTO 32012KT 10SM SCT050 07/M02 A2997 RMK AO2
KDNN 122015Z AUTO 31010G14KT 10SM SCT046 07/M01 A2996 RMK AO2
KDNN 121955Z AUTO 32009KT 10SM BKN044 08/00 A2996 RMK AO2
KDNN 121935Z AUTO 33010G15KT 10SM BKN046 08/00 A2996 RMK AO2
KDNN 121915Z AUTO 32014G20KT 10SM SCT043 BKN050 07/00 A2997 RMK AO2
KDNN 121855Z AUTO 32014G18KT 10SM BKN043 OVC050 07/M01 A2997 RMK AO2
KDNN 121835Z AUTO 33016KT 10SM SCT041 OVC050 07/00 A2997 RMK AO2
KDNN 121815Z AUTO 31008KT 10SM SCT037 BKN044 OVC050 07/00 A2999 RMK AO2
KDNN 121755Z AUTO 32012G18KT 10SM SCT039 OVC047 07/00 A2999 RMK AO2
KDNN 121735Z AUTO 34014KT 10SM SCT035 OVC047 06/00 A3000 RMK AO2
KDNN 121715Z AUTO 32016G20KT 10SM OVC033 06/00 A3000 RMK AO2
KDNN 121655Z AUTO 34016G24KT 10SM OVC033 06/00 A3000 RMK AO2
KDNN 121635Z AUTO 33014KT 10SM OVC035 06/00 A3000 RMK AO2
KDNN 121615Z AUTO 33007G14KT 10SM OVC035 06/01 A3000 RMK AO2
KDNN 121555Z AUTO 34009G14KT 10SM BKN035 OVC042 06/00 A3000 RMK AO2
KDNN 121535Z AUTO 33011G19KT 10SM OVC042 07/00 A2999 RMK AO2
KDNN 121515Z AUTO 33016G19KT 10SM OVC040 07/00 A2997 RMK AO2
KDNN 121455Z AUTO 35010G16KT 10SM OVC042 07/00 A2997 RMK AO2
KDNN 121435Z AUTO 33009G16KT 10SM BKN042 07/00 A2996 RMK AO2